createdAt,value
2018-02-10T00:00:32.109Z,16.25
2018-02-10T00:01:32.114Z,16.21
2018-02-10T00:02:32.145Z,16.21
2018-02-10T00:03:32.113Z,16.2
2018-02-10T00:04:32.125Z,16.2
2018-02-10T00:05:32.150Z,16.19
2018-02-10T00:06:32.100Z,16.17
2018-02-10T00:07:32.168Z,16.18
2018-02-10T00:08:32.127Z,16.14
2018-02-10T00:09:32.127Z,16.16
2018-02-10T00:10:32.145Z,16.16
2018-02-10T00:11:32.170Z,16.16
2018-02-10T00:12:32.151Z,16.17
2018-02-10T00:13:32.116Z,16.16
2018-02-10T00:14:32.111Z,16.16
2018-02-10T00:15:32.178Z,16.14
2018-02-10T00:16:32.178Z,16.17
2018-02-10T00:17:32.133Z,16.16
2018-02-10T00:18:32.117Z,16.14
2018-02-10T00:19:32.134Z,16.13
2018-02-10T00:20:32.123Z,16.14
2018-02-10T00:21:32.119Z,16.14
2018-02-10T00:22:32.173Z,16.12
2018-02-10T00:23:32.099Z,16.13
2018-02-10T00:24:32.114Z,16.12
2018-02-10T00:25:32.124Z,16.11
2018-02-10T00:26:32.149Z,16.08
2018-02-10T00:27:32.107Z,16.1
2018-02-10T00:28:32.121Z,16.11
2018-02-10T00:29:32.107Z,16.11
2018-02-10T00:30:32.124Z,16.1
2018-02-10T00:31:32.126Z,16.12
2018-02-10T00:32:32.119Z,16.08
2018-02-10T00:33:32.130Z,16.07
2018-02-10T00:34:32.175Z,16.06
2018-02-10T00:35:32.111Z,16.08
2018-02-10T00:36:32.152Z,16.08
2018-02-10T00:37:32.224Z,16.1
2018-02-10T00:38:32.110Z,16.07
2018-02-10T00:39:32.183Z,16.08
2018-02-10T00:40:32.120Z,16.11
2018-02-10T00:41:32.145Z,16.06
2018-02-10T00:42:32.114Z,16.07
2018-02-10T00:43:32.113Z,16.05
2018-02-10T00:44:32.153Z,16.05
2018-02-10T00:45:32.122Z,16.06
2018-02-10T00:46:32.174Z,16.03
2018-02-10T00:47:32.142Z,16.04
2018-02-10T00:48:32.115Z,16.04
2018-02-10T00:49:32.095Z,16.05
2018-02-10T00:50:32.110Z,16.03
2018-02-10T00:51:32.111Z,16.03
2018-02-10T00:52:32.126Z,16
2018-02-10T00:53:32.124Z,15.98
2018-02-10T00:54:32.117Z,16
2018-02-10T00:55:32.109Z,16.02
2018-02-10T00:56:32.155Z,15.99
2018-02-10T00:57:32.162Z,16.01
2018-02-10T00:58:32.160Z,16
2018-02-10T00:59:32.118Z,15.97
2018-02-10T01:00:32.180Z,16
2018-02-10T01:01:32.106Z,15.98
2018-02-10T01:02:32.126Z,15.99
2018-02-10T01:03:32.110Z,15.99
2018-02-10T01:04:32.163Z,16
2018-02-10T01:05:32.157Z,16
2018-02-10T01:06:32.113Z,16
2018-02-10T01:07:32.104Z,16
2018-02-10T01:08:32.082Z,16
2018-02-10T01:09:32.125Z,15.98
2018-02-10T01:10:32.149Z,15.96
2018-02-10T01:11:32.112Z,15.98
2018-02-10T01:12:32.084Z,15.93
2018-02-10T01:13:32.112Z,15.97
2018-02-10T01:14:32.124Z,15.96
2018-02-10T01:15:32.086Z,15.95
2018-02-10T01:16:32.134Z,15.97
2018-02-10T01:17:32.130Z,15.96
2018-02-10T01:18:32.145Z,15.95
2018-02-10T01:20:32.123Z,15.91
2018-02-10T01:21:32.224Z,15.92
2018-02-10T01:22:32.112Z,15.91
2018-02-10T01:23:32.135Z,15.89
2018-02-10T01:24:32.102Z,15.9
2018-02-10T01:25:32.100Z,15.88
2018-02-10T01:26:32.106Z,15.87
2018-02-10T01:27:32.110Z,15.88
2018-02-10T01:28:32.306Z,15.87
2018-02-10T01:29:32.117Z,15.91
2018-02-10T01:30:32.097Z,15.86
2018-02-10T01:31:32.100Z,15.86
2018-02-10T01:32:32.088Z,15.89
2018-02-10T01:33:32.145Z,15.88
2018-02-10T01:34:32.100Z,15.87
2018-02-10T01:35:32.107Z,15.88
2018-02-10T01:36:32.224Z,15.85
2018-02-10T01:37:32.099Z,15.86
2018-02-10T01:38:32.084Z,15.85
2018-02-10T01:39:32.078Z,15.85
2018-02-10T01:40:32.083Z,15.85
2018-02-10T01:41:32.096Z,15.86
2018-02-10T01:42:32.113Z,15.86
2018-02-10T01:43:32.112Z,15.86
2018-02-10T01:44:32.084Z,15.84
2018-02-10T01:45:32.075Z,15.84
2018-02-10T01:46:32.083Z,15.87
2018-02-10T01:47:32.092Z,15.86
2018-02-10T01:48:32.098Z,15.86
2018-02-10T01:49:32.103Z,15.85
2018-02-10T01:50:32.077Z,15.84
2018-02-10T01:51:32.089Z,15.82
2018-02-10T01:52:32.074Z,15.82
2018-02-10T01:53:32.142Z,15.82
2018-02-10T01:54:32.090Z,15.8
2018-02-10T01:55:32.098Z,15.8
2018-02-10T01:56:32.094Z,15.78
2018-02-10T01:57:32.119Z,15.77
2018-02-10T01:58:32.118Z,15.78
2018-02-10T01:59:32.086Z,15.8
2018-02-10T02:00:32.131Z,15.77
2018-02-10T02:01:32.081Z,15.81
2018-02-10T02:02:32.172Z,15.77
2018-02-10T02:03:32.114Z,15.76
2018-02-10T02:04:32.133Z,15.77
2018-02-10T02:05:32.111Z,15.77
2018-02-10T02:06:32.062Z,15.77
2018-02-10T02:07:32.086Z,15.78
2018-02-10T02:08:32.089Z,15.77
2018-02-10T02:09:32.136Z,15.77
2018-02-10T02:10:32.130Z,15.77
2018-02-10T02:11:32.072Z,15.8
2018-02-10T02:12:32.121Z,15.77
2018-02-10T02:13:32.137Z,15.74
2018-02-10T02:14:32.068Z,15.76
2018-02-10T02:15:32.079Z,15.75
2018-02-10T02:16:32.078Z,15.73
2018-02-10T02:17:32.141Z,15.71
2018-02-10T02:18:32.124Z,15.72
2018-02-10T02:19:32.115Z,15.73
2018-02-10T02:20:32.072Z,15.73
2018-02-10T02:21:32.129Z,15.73
2018-02-10T02:22:32.137Z,15.72
2018-02-10T02:23:32.135Z,15.72
2018-02-10T02:24:32.065Z,15.72
2018-02-10T02:25:32.090Z,15.72
2018-02-10T02:26:32.123Z,15.71
2018-02-10T02:27:32.062Z,15.73
2018-02-10T02:28:32.125Z,15.72
2018-02-10T02:29:32.120Z,15.72
2018-02-10T02:30:32.102Z,15.73
2018-02-10T02:31:32.114Z,15.71
2018-02-10T02:32:32.105Z,15.69
2018-02-10T02:33:32.127Z,15.7
2018-02-10T02:34:32.114Z,15.7
2018-02-10T02:35:32.062Z,15.7
2018-02-10T02:36:32.071Z,15.71
2018-02-10T02:37:32.086Z,15.71
2018-02-10T02:38:32.178Z,15.7
2018-02-10T02:39:32.122Z,15.66
2018-02-10T02:40:32.017Z,15.68
2018-02-10T02:41:32.106Z,15.65
2018-02-10T02:42:32.119Z,15.67
2018-02-10T02:43:32.112Z,15.67
2018-02-10T02:44:32.064Z,15.65
2018-02-10T02:45:32.130Z,15.67
2018-02-10T02:46:32.100Z,15.69
2018-02-10T02:47:32.080Z,15.68
2018-02-10T02:48:32.099Z,15.67
2018-02-10T02:49:32.075Z,15.62
2018-02-10T02:50:32.125Z,15.67
2018-02-10T02:51:32.078Z,15.62
2018-02-10T02:52:32.124Z,15.63
2018-02-10T02:53:32.139Z,15.66
2018-02-10T02:54:32.070Z,15.63
2018-02-10T02:55:32.065Z,15.63
2018-02-10T02:56:32.061Z,15.63
2018-02-10T02:57:32.128Z,15.65
2018-02-10T02:58:32.075Z,15.61
2018-02-10T02:59:32.071Z,15.6
2018-02-10T03:00:32.049Z,15.61
2018-02-10T03:01:32.101Z,15.6
2018-02-10T03:02:32.064Z,15.62
2018-02-10T03:03:32.057Z,15.61
2018-02-10T03:04:32.061Z,15.59
2018-02-10T03:05:32.065Z,15.62
2018-02-10T03:06:32.085Z,15.61
2018-02-10T03:07:32.102Z,15.61
2018-02-10T03:08:32.093Z,15.63
2018-02-10T03:09:32.133Z,15.59
2018-02-10T03:10:32.062Z,15.59
2018-02-10T03:11:32.072Z,15.59
2018-02-10T03:12:32.086Z,15.59
2018-02-10T03:13:32.067Z,15.61
2018-02-10T03:14:32.080Z,15.59
2018-02-10T03:15:32.070Z,15.57
2018-02-10T03:16:32.056Z,15.58
2018-02-10T03:17:32.058Z,15.59
2018-02-10T03:18:32.099Z,15.59
2018-02-10T03:19:32.111Z,15.61
2018-02-10T03:20:32.091Z,15.58
2018-02-10T03:21:32.057Z,15.59
2018-02-10T03:22:32.095Z,15.57
2018-02-10T03:23:32.090Z,15.57
2018-02-10T03:24:32.057Z,15.59
2018-02-10T03:25:32.062Z,15.57
2018-02-10T03:26:32.070Z,15.57
2018-02-10T03:27:32.036Z,15.56
2018-02-10T03:28:32.058Z,15.56
2018-02-10T03:29:32.090Z,15.57
2018-02-10T03:30:32.146Z,15.53
2018-02-10T03:31:32.061Z,15.55
2018-02-10T03:32:32.101Z,15.53
2018-02-10T03:33:32.049Z,15.54
2018-02-10T03:34:32.069Z,15.53
2018-02-10T03:35:32.097Z,15.53
2018-02-10T03:36:32.089Z,15.52
2018-02-10T03:37:32.078Z,15.55
2018-02-10T03:38:32.051Z,15.55
2018-02-10T03:39:32.093Z,15.52
2018-02-10T03:40:32.052Z,15.56
2018-02-10T03:41:32.087Z,15.53
2018-02-10T03:42:32.052Z,15.54
2018-02-10T03:43:32.048Z,15.52
2018-02-10T03:44:32.034Z,15.53
2018-02-10T03:45:32.053Z,15.52
2018-02-10T03:46:32.049Z,15.52
2018-02-10T03:47:32.064Z,15.51
2018-02-10T03:48:32.048Z,15.52
2018-02-10T03:49:32.031Z,15.54
2018-02-10T03:50:32.092Z,15.48
2018-02-10T03:51:32.064Z,15.53
2018-02-10T03:52:32.038Z,15.52
2018-02-10T03:53:32.086Z,15.47
2018-02-10T03:54:32.095Z,15.52
2018-02-10T03:55:32.041Z,15.51
2018-02-10T03:56:32.077Z,15.51
2018-02-10T03:57:32.080Z,15.49
2018-02-10T03:58:32.031Z,15.51
2018-02-10T03:59:32.086Z,15.48
2018-02-10T04:00:32.051Z,15.52
2018-02-10T04:01:32.067Z,15.49
2018-02-10T04:02:32.048Z,15.52
2018-02-10T04:03:32.053Z,15.49
2018-02-10T04:04:32.073Z,15.47
2018-02-10T04:05:32.100Z,15.48
2018-02-10T04:06:32.088Z,15.47
2018-02-10T04:07:32.068Z,15.49
2018-02-10T04:08:32.036Z,15.49
2018-02-10T04:09:32.037Z,15.48
2018-02-10T04:10:32.035Z,15.48
2018-02-10T04:11:32.072Z,15.45
2018-02-10T04:12:32.074Z,15.47
2018-02-10T04:13:32.033Z,15.48
2018-02-10T04:14:32.041Z,15.45
2018-02-10T04:15:32.056Z,15.44
2018-02-10T04:16:32.053Z,15.46
2018-02-10T04:17:32.040Z,15.46
2018-02-10T04:18:32.025Z,15.44
2018-02-10T04:19:32.028Z,15.44
2018-02-10T04:20:32.093Z,15.45
2018-02-10T04:21:32.034Z,15.46
2018-02-10T04:22:32.030Z,15.46
2018-02-10T04:23:32.037Z,15.46
2018-02-10T04:24:32.070Z,15.45
2018-02-10T04:25:32.039Z,15.45
2018-02-10T04:26:32.093Z,15.43
2018-02-10T04:27:32.030Z,15.43
2018-02-10T04:28:32.076Z,15.43
2018-02-10T04:29:32.046Z,15.42
2018-02-10T04:30:32.019Z,15.42
2018-02-10T04:31:32.092Z,15.43
2018-02-10T04:32:32.061Z,15.43
2018-02-10T04:33:32.018Z,15.43
2018-02-10T04:34:32.077Z,15.42
2018-02-10T04:35:32.008Z,15.42
2018-02-10T04:36:32.070Z,15.41
2018-02-10T04:37:32.080Z,15.41
2018-02-10T04:38:32.069Z,15.42
2018-02-10T04:39:32.125Z,15.41
2018-02-10T04:40:32.021Z,15.41
2018-02-10T04:41:32.070Z,15.4
2018-02-10T04:42:32.025Z,15.39
2018-02-10T04:43:32.031Z,15.4
2018-02-10T04:44:32.021Z,15.41
2018-02-10T04:45:32.016Z,15.41
2018-02-10T04:46:32.075Z,15.39
2018-02-10T04:47:32.027Z,15.41
2018-02-10T04:48:32.038Z,15.39
2018-02-10T04:49:32.088Z,15.4
2018-02-10T04:50:32.055Z,15.41
2018-02-10T04:51:32.064Z,15.41
2018-02-10T04:52:32.013Z,15.43
2018-02-10T04:53:32.025Z,15.43
2018-02-10T04:54:32.062Z,15.43
2018-02-10T04:55:32.072Z,15.43
2018-02-10T04:56:32.029Z,15.44
2018-02-10T04:57:32.194Z,15.46
2018-02-10T04:58:32.019Z,15.45
2018-02-10T04:59:32.055Z,15.44
2018-02-10T05:00:32.066Z,15.43
2018-02-10T05:01:32.125Z,15.44
2018-02-10T05:02:32.046Z,15.45
2018-02-10T05:03:32.056Z,15.43
2018-02-10T05:04:32.042Z,15.44
2018-02-10T05:05:32.010Z,15.43
2018-02-10T05:06:32.023Z,15.44
2018-02-10T05:07:32.057Z,15.46
2018-02-10T05:08:32.013Z,15.46
2018-02-10T05:09:32.121Z,15.47
2018-02-10T05:10:32.039Z,15.49
2018-02-10T05:11:32.013Z,15.49
2018-02-10T05:12:32.027Z,15.47
2018-02-10T05:13:32.058Z,15.49
2018-02-10T05:14:32.058Z,15.52
2018-02-10T05:15:32.006Z,15.53
2018-02-10T05:16:32.064Z,15.53
2018-02-10T05:17:32.115Z,15.54
2018-02-10T05:18:32.021Z,15.55
2018-02-10T05:19:32.024Z,15.59
2018-02-10T05:20:32.006Z,15.58
2018-02-10T05:21:32.018Z,15.59
2018-02-10T05:22:32.013Z,15.61
2018-02-10T05:23:32.006Z,15.62
2018-02-10T05:24:32.012Z,15.62
2018-02-10T05:25:32.013Z,15.65
2018-02-10T05:26:32.003Z,15.65
2018-02-10T05:27:32.010Z,15.67
2018-02-10T05:28:32.000Z,15.67
2018-02-10T05:29:32.018Z,15.71
2018-02-10T05:30:32.015Z,15.72
2018-02-10T05:31:32.016Z,15.73
2018-02-10T05:32:32.017Z,15.72
2018-02-10T05:33:32.006Z,15.75
2018-02-10T05:34:32.030Z,15.78
2018-02-10T05:35:32.007Z,15.78
2018-02-10T05:36:32.054Z,15.8
2018-02-10T05:37:32.028Z,15.82
2018-02-10T05:38:32.029Z,15.85
2018-02-10T05:39:32.005Z,15.86
2018-02-10T05:40:32.009Z,15.87
2018-02-10T05:41:32.015Z,15.88
2018-02-10T05:42:31.999Z,15.9
2018-02-10T05:43:32.007Z,15.91
2018-02-10T05:44:32.021Z,15.91
2018-02-10T05:45:32.059Z,15.93
2018-02-10T05:46:32.008Z,15.97
2018-02-10T05:47:32.043Z,15.99
2018-02-10T05:48:32.032Z,15.99
2018-02-10T05:49:32.010Z,16
2018-02-10T05:50:32.058Z,16.01
2018-02-10T05:51:32.011Z,16.02
2018-02-10T05:52:32.013Z,16.04
2018-02-10T05:53:32.018Z,16.05
2018-02-10T05:54:31.996Z,16.05
2018-02-10T05:55:31.995Z,16.1
2018-02-10T05:56:31.991Z,16.1
2018-02-10T05:57:32.011Z,16.11
2018-02-10T05:58:32.010Z,16.13
2018-02-10T05:59:32.019Z,16.14
2018-02-10T06:00:31.993Z,16.16
2018-02-10T06:01:32.040Z,16.18
2018-02-10T06:02:31.982Z,16.19
2018-02-10T06:03:32.091Z,16.21
2018-02-10T06:04:31.997Z,16.2
2018-02-10T06:05:32.042Z,16.22
2018-02-10T06:06:32.005Z,16.24
2018-02-10T06:07:32.010Z,16.26
2018-02-10T06:08:32.016Z,16.28
2018-02-10T06:09:31.974Z,16.27
2018-02-10T06:10:32.010Z,16.29
2018-02-10T06:11:31.991Z,16.29
2018-02-10T06:12:32.011Z,16.32
2018-02-10T06:13:32.002Z,16.32
2018-02-10T06:14:32.008Z,16.32
2018-02-10T06:15:31.996Z,16.33
2018-02-10T06:16:32.031Z,16.37
2018-02-10T06:17:31.997Z,16.37
2018-02-10T06:18:31.998Z,16.37
2018-02-10T06:19:32.031Z,16.37
2018-02-10T06:20:32.000Z,16.4
2018-02-10T06:21:32.027Z,16.41
2018-02-10T06:22:32.009Z,16.43
2018-02-10T06:23:32.154Z,16.43
2018-02-10T06:24:31.989Z,16.46
2018-02-10T06:25:32.034Z,16.44
2018-02-10T06:26:31.991Z,16.46
2018-02-10T06:27:32.037Z,16.48
2018-02-10T06:28:32.015Z,16.48
2018-02-10T06:29:31.982Z,16.49
2018-02-10T06:30:31.975Z,16.5
2018-02-10T06:31:31.994Z,16.51
2018-02-10T06:32:31.985Z,16.54
2018-02-10T06:33:32.033Z,16.54
2018-02-10T06:34:32.005Z,16.55
2018-02-10T06:35:31.974Z,16.55
2018-02-10T06:36:32.035Z,16.56
2018-02-10T06:37:31.974Z,16.59
2018-02-10T06:38:32.028Z,16.59
2018-02-10T06:39:32.032Z,16.58
2018-02-10T06:40:32.139Z,16.6
2018-02-10T06:41:31.993Z,16.6
2018-02-10T06:42:31.996Z,16.61
2018-02-10T06:43:31.989Z,16.61
2018-02-10T06:44:32.014Z,16.63
2018-02-10T06:45:32.031Z,16.64
2018-02-10T06:46:31.992Z,16.64
2018-02-10T06:47:32.030Z,16.63
2018-02-10T06:48:32.017Z,16.65
2018-02-10T06:50:32.032Z,16.66
2018-02-10T06:51:31.980Z,16.66
2018-02-10T06:52:32.023Z,16.67
2018-02-10T06:53:31.998Z,16.69
2018-02-10T06:54:32.056Z,16.7
2018-02-10T06:55:31.989Z,16.7
2018-02-10T06:57:32.017Z,16.7
2018-02-10T06:58:31.968Z,16.71
2018-02-10T06:59:31.978Z,16.73
2018-02-10T07:00:31.982Z,16.72
2018-02-10T07:01:31.954Z,16.74
2018-02-10T07:02:31.993Z,16.71
2018-02-10T07:03:31.960Z,16.72
2018-02-10T07:04:32.054Z,16.74
2018-02-10T07:05:31.966Z,16.74
2018-02-10T07:06:31.990Z,16.73
2018-02-10T07:07:31.947Z,16.75
2018-02-10T07:08:31.957Z,16.74
2018-02-10T07:09:31.978Z,16.74
2018-02-10T07:10:31.981Z,16.73
2018-02-10T07:11:31.960Z,16.73
2018-02-10T07:12:31.973Z,16.73
2018-02-10T07:13:31.978Z,16.74
2018-02-10T07:14:31.965Z,16.74
2018-02-10T07:15:31.951Z,16.74
2018-02-10T07:16:31.968Z,16.73
2018-02-10T07:17:31.964Z,16.73
2018-02-10T07:18:31.966Z,16.73
2018-02-10T07:19:31.959Z,16.73
2018-02-10T07:20:31.973Z,16.73
2018-02-10T07:21:32.009Z,16.73
2018-02-10T07:22:31.951Z,16.76
2018-02-10T07:23:31.948Z,16.76
2018-02-10T07:24:31.952Z,16.74
2018-02-10T07:25:31.952Z,16.73
2018-02-10T07:26:31.978Z,16.74
2018-02-10T07:27:31.961Z,16.72
2018-02-10T07:28:31.953Z,16.75
2018-02-10T07:29:31.983Z,16.73
2018-02-10T07:30:31.956Z,16.73
2018-02-10T07:31:31.945Z,16.73
2018-02-10T07:32:31.997Z,16.74
2018-02-10T07:33:31.951Z,16.73
2018-02-10T07:35:32.005Z,16.74
2018-02-10T07:36:31.955Z,16.74
2018-02-10T07:37:31.953Z,16.74
2018-02-10T07:38:31.954Z,16.73
2018-02-10T07:39:31.968Z,16.72
2018-02-10T07:40:31.969Z,16.73
2018-02-10T07:41:31.944Z,16.73
2018-02-10T07:42:31.939Z,16.75
2018-02-10T07:43:31.955Z,16.72
2018-02-10T07:44:31.953Z,16.47
2018-02-10T07:45:31.966Z,16.24
2018-02-10T07:46:32.020Z,16.08
2018-02-10T07:47:31.924Z,15.95
2018-02-10T07:48:31.961Z,16.04
2018-02-10T07:49:31.936Z,16.13
2018-02-10T07:50:31.938Z,16.17
2018-02-10T07:51:31.954Z,16.24
2018-02-10T07:52:31.944Z,16.29
2018-02-10T07:53:31.992Z,16.34
2018-02-10T07:54:31.939Z,16.39
2018-02-10T07:55:31.936Z,16.4
2018-02-10T07:56:31.938Z,16.41
2018-02-10T07:57:31.959Z,16.43
2018-02-10T07:58:31.963Z,16.44
2018-02-10T07:59:31.994Z,16.48
2018-02-10T08:00:31.963Z,16.48
2018-02-10T08:01:31.963Z,16.51
2018-02-10T08:02:32.116Z,16.52
2018-02-10T08:03:31.985Z,16.54
2018-02-10T08:04:32.000Z,16.56
2018-02-10T08:05:31.937Z,16.58
2018-02-10T08:06:31.969Z,16.57
2018-02-10T08:07:32.121Z,16.58
2018-02-10T08:08:32.006Z,16.6
2018-02-10T08:09:31.913Z,16.6
2018-02-10T08:10:31.889Z,16.62
2018-02-10T08:11:31.913Z,16.62
2018-02-10T08:12:31.926Z,16.62
2018-02-10T08:13:31.911Z,16.64
2018-02-10T08:14:31.903Z,16.66
2018-02-10T08:15:31.909Z,16.69
2018-02-10T08:16:32.003Z,16.66
2018-02-10T08:17:31.897Z,16.7
2018-02-10T08:18:31.923Z,16.7
2018-02-10T08:19:31.902Z,16.7
2018-02-10T08:20:31.888Z,16.73
2018-02-10T08:21:31.905Z,16.73
2018-02-10T08:22:31.913Z,16.73
2018-02-10T08:23:31.956Z,16.75
2018-02-10T08:24:31.925Z,16.75
2018-02-10T08:25:31.899Z,16.76
2018-02-10T08:26:31.897Z,16.79
2018-02-10T08:27:31.894Z,16.8
2018-02-10T08:28:31.895Z,16.79
2018-02-10T08:29:31.923Z,16.8
2018-02-10T08:30:31.892Z,16.84
2018-02-10T08:31:31.932Z,16.82
2018-02-10T08:32:31.900Z,16.82
2018-02-10T08:33:31.977Z,16.85
2018-02-10T08:34:31.896Z,16.85
2018-02-10T08:35:31.898Z,16.87
2018-02-10T08:36:31.966Z,16.87
2018-02-10T08:37:31.893Z,16.87
2018-02-10T08:38:31.911Z,16.88
2018-02-10T08:39:31.887Z,16.88
2018-02-10T08:40:31.904Z,16.87
2018-02-10T08:41:31.980Z,16.91
2018-02-10T08:42:31.910Z,16.9
2018-02-10T08:43:31.919Z,16.89
2018-02-10T08:44:31.901Z,16.9
2018-02-10T08:45:31.904Z,16.91
2018-02-10T08:46:31.883Z,16.92
2018-02-10T08:47:31.884Z,16.93
2018-02-10T08:48:31.932Z,16.95
2018-02-10T08:49:31.883Z,16.95
2018-02-10T08:50:31.889Z,16.95
2018-02-10T08:51:31.902Z,16.95
2018-02-10T08:52:31.874Z,16.95
2018-02-10T08:53:31.924Z,16.98
2018-02-10T08:54:31.904Z,16.99
2018-02-10T08:55:31.913Z,16.96
2018-02-10T08:56:31.881Z,16.98
2018-02-10T08:57:31.921Z,16.96
2018-02-10T08:58:31.931Z,16.99
2018-02-10T08:59:31.887Z,16.99
2018-02-10T09:00:31.894Z,16.99
2018-02-10T09:01:31.923Z,17
2018-02-10T09:02:31.880Z,16.99
2018-02-10T09:03:31.886Z,16.98
2018-02-10T09:04:31.895Z,17.01
2018-02-10T09:05:31.886Z,17.01
2018-02-10T09:06:31.898Z,17
2018-02-10T09:07:31.915Z,16.99
2018-02-10T09:08:31.883Z,17
2018-02-10T09:09:31.915Z,17.03
2018-02-10T09:10:31.892Z,17.02
2018-02-10T09:11:31.901Z,17.03
2018-02-10T09:12:31.881Z,17.01
2018-02-10T09:13:31.896Z,17.02
2018-02-10T09:14:31.900Z,17.03
2018-02-10T09:15:32.164Z,17.03
2018-02-10T09:16:31.979Z,17.02
2018-02-10T09:17:31.932Z,17.02
2018-02-10T09:18:31.877Z,17.03
2018-02-10T09:19:31.880Z,17.03
2018-02-10T09:20:31.952Z,17.02
2018-02-10T09:21:31.865Z,17.07
2018-02-10T09:22:31.909Z,17.05
2018-02-10T09:23:31.875Z,17.05
2018-02-10T09:24:31.874Z,17.06
2018-02-10T09:25:31.925Z,17.09
2018-02-10T09:26:31.900Z,17.08
2018-02-10T09:27:31.897Z,17.1
2018-02-10T09:28:31.896Z,17.1
2018-02-10T09:29:31.911Z,17.14
2018-02-10T09:30:31.904Z,17.1
2018-02-10T09:31:32.137Z,17.13
2018-02-10T09:32:31.899Z,17.13
2018-02-10T09:33:31.880Z,17.15
2018-02-10T09:34:31.869Z,17.17
2018-02-10T09:35:31.862Z,17.16
2018-02-10T09:36:31.906Z,17.17
2018-02-10T09:37:31.888Z,17.16
2018-02-10T09:38:31.900Z,17.19
2018-02-10T09:39:31.888Z,17.2
2018-02-10T09:41:31.891Z,17.2
2018-02-10T09:42:31.886Z,17.23
2018-02-10T09:43:31.899Z,17.22
2018-02-10T09:44:31.908Z,17.23
2018-02-10T09:45:31.878Z,17.23
2018-02-10T09:46:31.875Z,17.23
2018-02-10T09:47:32.092Z,17.26
2018-02-10T09:48:31.886Z,17.23
2018-02-10T09:49:31.943Z,17.23
2018-02-10T09:50:31.871Z,17.24
2018-02-10T09:51:31.862Z,17.24
2018-02-10T09:52:31.907Z,17.24
2018-02-10T09:53:31.987Z,17.24
2018-02-10T09:54:31.874Z,17.22
2018-02-10T09:55:31.907Z,17.28
2018-02-10T09:56:31.941Z,17.26
2018-02-10T09:57:32.005Z,17.28
2018-02-10T09:58:31.925Z,17.26
2018-02-10T09:59:31.887Z,17.3
2018-02-10T10:00:31.919Z,17.29
2018-02-10T10:01:32.211Z,17.28
2018-02-10T10:02:31.883Z,17.33
2018-02-10T10:03:31.959Z,17.33
2018-02-10T10:04:31.887Z,17.35
2018-02-10T10:05:31.879Z,17.37
2018-02-10T10:06:31.892Z,17.34
2018-02-10T10:07:31.869Z,17.36
2018-02-10T10:08:31.920Z,17.34
2018-02-10T10:09:31.858Z,17.35
2018-02-10T10:10:31.894Z,17.34
2018-02-10T10:11:31.890Z,17.34
2018-02-10T10:12:32.006Z,17.35
2018-02-10T10:13:31.859Z,17.34
2018-02-10T10:14:31.857Z,17.34
2018-02-10T10:15:31.860Z,17.35
2018-02-10T10:16:31.912Z,17.34
2018-02-10T10:17:31.894Z,17.33
2018-02-10T10:18:31.862Z,17.33
2018-02-10T10:19:31.885Z,17.34
2018-02-10T10:20:31.953Z,17.34
2018-02-10T10:21:31.943Z,17.33
2018-02-10T10:22:31.926Z,17.34
2018-02-10T10:23:31.926Z,17.34
2018-02-10T10:24:31.948Z,17.35
2018-02-10T10:25:31.921Z,17.34
2018-02-10T10:26:31.920Z,17.35
2018-02-10T10:27:31.960Z,17.35
2018-02-10T10:48:36.238Z,18.57
2018-02-10T10:48:47.785Z,18.56
2018-02-10T10:49:47.373Z,18.46
2018-02-10T10:50:36.658Z,18.42
2018-02-10T10:51:35.962Z,18.35
2018-02-10T10:52:35.975Z,18.29
2018-02-10T10:53:35.972Z,18.24
2018-02-10T10:54:35.978Z,18.19
2018-02-10T10:55:35.965Z,18.13
2018-02-10T10:56:35.957Z,18.11
2018-02-10T10:57:35.969Z,18.04
2018-02-10T10:58:35.996Z,17.98
2018-02-10T10:59:36.090Z,17.92
2018-02-10T11:00:36.079Z,17.9
2018-02-10T11:01:35.975Z,17.94
2018-02-10T11:02:35.944Z,17.92
2018-02-10T11:03:35.976Z,17.91
2018-02-10T11:04:35.964Z,17.88
2018-02-10T11:05:35.965Z,17.91
2018-02-10T11:07:35.994Z,17.89
2018-02-10T11:08:35.964Z,17.88
2018-02-10T11:09:35.994Z,17.89
2018-02-10T11:10:35.954Z,17.88
2018-02-10T11:11:36.016Z,17.9
2018-02-10T11:12:35.973Z,17.89
2018-02-10T11:13:35.975Z,17.89
2018-02-10T11:14:36.001Z,17.91
2018-02-10T11:15:36.011Z,17.91
2018-02-10T11:16:50.200Z,17.91
2018-02-10T11:17:49.687Z,17.9
2018-02-10T11:18:46.592Z,17.92
2018-02-10T11:19:46.203Z,17.92
2018-02-10T11:20:46.185Z,17.92
2018-02-10T11:21:46.188Z,17.96
2018-02-10T11:22:46.196Z,17.93
2018-02-10T11:23:13.438Z,18.04
2018-02-10T11:24:13.056Z,17.99
2018-02-10T11:25:24.630Z,17.99
2018-02-10T11:26:24.167Z,18.03
2018-02-10T11:27:24.214Z,18.02
2018-02-10T11:28:24.170Z,18.04
2018-02-10T11:29:24.133Z,18.03
2018-02-10T11:32:24.401Z,18.02
2018-02-10T11:33:24.309Z,18.04
2018-02-10T11:34:24.217Z,18.06
2018-02-10T11:35:24.218Z,18.05
2018-02-10T11:36:24.251Z,18.06
2018-02-10T11:37:24.283Z,18.07
2018-02-10T11:39:24.166Z,18.09
2018-02-10T11:40:24.180Z,18.08
2018-02-10T11:41:24.163Z,18.09
2018-02-10T11:42:24.250Z,18.08
2018-02-10T11:43:24.288Z,18.03
2018-02-10T11:44:24.279Z,17.99
2018-02-10T11:45:24.183Z,17.97
2018-02-10T11:46:24.144Z,17.95
2018-02-10T11:47:24.235Z,17.94
2018-02-10T11:48:24.181Z,17.9
2018-02-10T11:49:24.263Z,17.89
2018-02-10T11:50:24.177Z,17.88
2018-02-10T11:51:24.194Z,17.87
2018-02-10T11:52:24.193Z,17.84
2018-02-10T11:53:24.180Z,17.83
2018-02-10T11:54:24.157Z,17.81
2018-02-10T11:55:24.304Z,17.8
2018-02-10T11:56:24.248Z,17.8
2018-02-10T11:57:24.258Z,17.8
2018-02-10T11:58:24.346Z,17.84
2018-02-10T11:59:24.331Z,17.89
2018-02-10T12:00:24.294Z,17.91
2018-02-10T12:01:24.185Z,17.92
2018-02-10T12:02:24.223Z,17.95
2018-02-10T12:03:24.208Z,17.96
2018-02-10T12:04:24.274Z,17.98
2018-02-10T12:05:24.184Z,18.02
2018-02-10T12:06:24.190Z,18.03
2018-02-10T12:07:24.186Z,18.07
2018-02-10T12:08:24.188Z,18.07
2018-02-10T12:09:24.216Z,18.08
2018-02-10T12:10:24.174Z,18.11
2018-02-10T12:11:24.235Z,18.13
2018-02-10T12:12:24.216Z,18.13
2018-02-10T12:13:24.224Z,18.17
2018-02-10T12:14:24.194Z,18.17
2018-02-10T12:15:24.260Z,18.2
2018-02-10T12:16:24.180Z,18.2
2018-02-10T12:17:24.278Z,18.23
2018-02-10T12:18:11.059Z,18.23
2018-02-10T12:19:10.630Z,18.25
2018-02-10T12:19:23.377Z,18.24
2018-02-10T12:20:23.080Z,18.25
2018-02-10T12:20:38.186Z,18.25
2018-02-10T12:21:35.927Z,18.28
2018-02-10T12:21:48.106Z,18.3
2018-02-10T12:22:47.680Z,18.27
2018-02-10T12:23:00.719Z,18.3
2018-02-10T12:24:00.034Z,18.35
2018-02-10T12:24:12.847Z,18.36
2018-02-10T12:25:12.475Z,18.38
2018-02-10T12:25:25.277Z,18.37
2018-02-10T12:26:24.891Z,18.37
2018-02-10T12:26:38.084Z,18.36
2018-02-10T12:27:46.975Z,18.37
2018-02-10T12:28:46.641Z,18.37
2018-02-10T12:30:46.666Z,18.4
2018-02-10T12:31:46.586Z,18.39
2018-02-10T12:32:46.595Z,18.47
2018-02-10T12:33:46.561Z,18.46
2018-02-10T12:34:46.592Z,18.46
2018-02-10T12:35:46.652Z,18.44
2018-02-10T12:36:46.562Z,18.49
2018-02-10T12:37:46.609Z,18.46
2018-02-10T12:38:46.749Z,18.48
2018-02-10T12:39:46.578Z,18.48
2018-02-10T12:40:46.568Z,18.49
2018-02-10T12:41:46.644Z,18.52
2018-02-10T12:42:46.564Z,18.5
2018-02-10T12:43:46.559Z,18.51
2018-02-10T12:44:46.684Z,18.51
2018-02-10T12:45:46.586Z,18.52
2018-02-10T12:46:46.540Z,18.53
2018-02-10T12:47:46.758Z,18.53
2018-02-10T12:48:46.605Z,18.54
2018-02-10T12:49:46.543Z,18.54
2018-02-10T12:50:46.541Z,18.54
2018-02-10T12:51:46.602Z,18.57
2018-02-10T12:52:46.587Z,18.56
2018-02-10T12:56:47.346Z,18.61
2018-02-10T12:57:46.798Z,18.62
2018-02-10T12:58:46.772Z,18.63
2018-02-10T12:59:46.877Z,18.63
2018-02-10T13:00:46.824Z,18.66
2018-02-10T13:01:46.781Z,18.64
2018-02-10T13:02:46.781Z,18.66
2018-02-10T13:03:46.792Z,18.67
2018-02-10T13:04:46.781Z,18.69
2018-02-10T13:05:46.802Z,18.7
2018-02-10T13:06:54.272Z,18.7
2018-02-10T13:07:53.768Z,18.7
2018-02-10T13:08:53.777Z,18.71
2018-02-10T13:09:53.781Z,18.71
2018-02-10T13:10:53.772Z,18.74
2018-02-10T13:11:53.787Z,18.74
2018-02-10T13:12:53.840Z,18.74
2018-02-10T13:13:53.857Z,18.78
2018-02-10T13:14:53.837Z,18.77
2018-02-10T13:15:53.779Z,18.77
2018-02-10T13:16:53.765Z,18.77
2018-02-10T13:17:53.952Z,18.77
2018-02-10T13:18:29.870Z,18.78
2018-02-10T13:19:29.319Z,18.8
2018-02-10T13:20:29.479Z,18.8
2018-02-10T13:21:29.337Z,18.81
2018-02-10T13:22:29.585Z,18.82